Time;durP1;ratioP1;P1;durP2;ratioP2;P2;SDS_P1;SDS_P2;PMS_P1;PMS_P2;Temp;Humidity;BMP_temperature;BMP_pressure;BME280_temperature;BME280_humidity;BME280_pressure;Samples;Min_cycle;Max_cycle;Signal;HPM_P1;HPM_P2
2023/10/30 00:00:48;;;;;;;0.65;0.40;;;9.80;99.90;;;;;;6276040;22;20015;-82
2023/10/30 00:03:14;;;;;;;1.23;0.38;;;9.80;99.90;;;;;;6305105;22;20022;-82
2023/10/30 00:05:41;;;;;;;3.45;0.32;;;9.80;99.90;;;;;;6304751;22;20011;-82
2023/10/30 00:08:06;;;;;;;1.67;0.47;;;9.70;99.90;;;;;;6302889;22;20011;-82
2023/10/30 00:10:35;;;;;;;0.38;0.22;;;9.70;99.90;;;;;;6302894;22;20014;-82
2023/10/30 00:13:01;;;;;;;0.63;0.28;;;9.70;99.90;;;;;;6304363;22;20003;-82
2023/10/30 00:15:27;;;;;;;1.45;0.22;;;9.60;99.90;;;;;;6303548;22;20011;-82
2023/10/30 00:17:52;;;;;;;0.40;0.20;;;9.60;99.90;;;;;;6303387;22;20086;-82
2023/10/30 00:20:18;;;;;;;2.78;0.30;;;9.60;99.90;;;;;;6303566;22;20015;-82
2023/10/30 00:22:45;;;;;;;0.70;0.20;;;9.50;99.90;;;;;;6275934;22;20023;-82
2023/10/30 00:25:11;;;;;;;2.00;0.75;;;9.50;99.90;;;;;;6276493;22;20153;-82
2023/10/30 00:27:37;;;;;;;7.35;0.52;;;9.40;99.90;;;;;;6277035;22;20465;-82
2023/10/30 00:30:03;;;;;;;0.98;0.50;;;9.40;99.90;;;;;;6251119;22;20076;-82
2023/10/30 00:32:30;;;;;;;2.75;0.60;;;9.30;99.90;;;;;;6277224;22;20351;-82
2023/10/30 00:34:56;;;;;;;1.15;0.52;;;9.30;99.90;;;;;;6275908;22;20085;-82
2023/10/30 00:37:23;;;;;;;1.15;0.40;;;9.30;99.90;;;;;;6276771;22;20043;-82
2023/10/30 00:39:49;;;;;;;0.15;0.15;;;9.40;99.90;;;;;;6304282;22;20509;-82
2023/10/30 00:42:14;;;;;;;0.13;0.13;;;9.40;99.90;;;;;;6303378;22;20011;-82
2023/10/30 00:44:40;;;;;;;0.95;0.30;;;9.50;99.90;;;;;;6304192;22;20018;-82
2023/10/30 00:47:06;;;;;;;1.02;0.22;;;9.50;99.90;;;;;;6303549;22;20344;-82
2023/10/30 00:49:32;;;;;;;3.17;0.20;;;9.40;99.90;;;;;;6302628;22;20061;-82
2023/10/30 00:51:58;;;;;;;0.25;0.20;;;9.50;99.90;;;;;;6304441;22;20011;-82
2023/10/30 00:54:23;;;;;;;0.20;0.10;;;9.50;99.90;;;;;;6304809;22;20011;-82
2023/10/30 00:56:49;;;;;;;1.83;0.30;;;9.50;99.90;;;;;;6303249;22;20019;-82
2023/10/30 00:59:15;;;;;;;0.68;0.25;;;9.50;99.90;;;;;;6304468;22;20011;-82
2023/10/30 01:01:41;;;;;;;2.90;0.57;;;9.50;99.90;;;;;;6304603;22;20014;-82
2023/10/30 01:04:07;;;;;;;0.10;0.10;;;9.50;99.90;;;;;;6303936;22;20007;-82
2023/10/30 01:06:34;;;;;;;4.05;0.38;;;9.50;99.90;;;;;;6304137;22;20011;-82
2023/10/30 01:08:59;;;;;;;0.50;0.20;;;9.50;99.90;;;;;;6302802;22;20436;-82
2023/10/30 01:11:25;;;;;;;0.40;0.32;;;9.50;99.90;;;;;;6302647;22;20057;-82
2023/10/30 01:13:52;;;;;;;1.23;0.38;;;9.40;99.90;;;;;;6303247;22;20403;-81
2023/10/30 01:16:21;;;;;;;;;;;9.40;99.90;;;;;;6304650;22;20007;-82
2023/10/30 01:18:47;;;;;;;4.53;0.57;;;9.40;99.90;;;;;;6303065;22;19990;-81
2023/10/30 01:21:13;;;;;;;0.30;0.10;;;9.40;99.90;;;;;;6274830;22;20482;-81
2023/10/30 01:23:39;;;;;;;0.20;0.20;;;9.40;99.90;;;;;;6303034;22;20015;-81
2023/10/30 01:26:04;;;;;;;0.25;0.17;;;9.40;99.90;;;;;;6302077;22;20011;-82
2023/10/30 01:28:30;;;;;;;0.40;0.40;;;9.30;99.90;;;;;;6303911;22;20012;-82
2023/10/30 01:30:56;;;;;;;0.43;0.35;;;9.30;99.90;;;;;;6275849;22;20476;-82
2023/10/30 01:33:23;;;;;;;0.55;0.43;;;9.30;99.90;;;;;;6304098;22;20075;-82
2023/10/30 01:35:49;;;;;;;2.67;0.30;;;9.30;99.90;;;;;;6303886;22;20101;-82
2023/10/30 01:38:14;;;;;;;1.02;0.50;;;9.30;99.90;;;;;;6302516;22;20336;-82
2023/10/30 01:40:49;;;;;;;0.50;0.40;;;9.20;99.90;;;;;;6303691;22;20015;-82
2023/10/30 01:43:14;;;;;;;3.70;0.43;;;9.30;99.90;;;;;;6304123;22;20495;-82
2023/10/30 01:45:40;;;;;;;2.88;0.43;;;9.30;99.90;;;;;;6302881;22;20065;-82
2023/10/30 01:48:06;;;;;;;1.38;0.70;;;9.20;99.90;;;;;;6306092;22;20038;-82
2023/10/30 01:50:33;;;;;;;2.83;0.70;;;9.20;99.90;;;;;;6306451;22;20015;-82
2023/10/30 01:52:59;;;;;;;2.05;0.60;;;9.20;99.90;;;;;;6304637;22;20471;-82
2023/10/30 01:55:25;;;;;;;0.75;0.55;;;9.20;99.90;;;;;;6306895;22;20018;-82
2023/10/30 01:57:51;;;;;;;0.55;0.30;;;9.20;99.90;;;;;;6306451;22;20098;-82
2023/10/30 02:00:17;;;;;;;0.73;0.50;;;9.30;99.90;;;;;;6305877;22;20080;-82
2023/10/30 02:02:43;;;;;;;1.17;0.55;;;9.30;99.90;;;;;;6304777;22;20141;-82
2023/10/30 02:05:09;;;;;;;0.80;0.65;;;9.40;99.90;;;;;;6305478;22;20039;-82
2023/10/30 02:07:36;;;;;;;3.05;0.50;;;9.40;99.90;;;;;;6304569;22;20358;-82
2023/10/30 02:10:03;;;;;;;1.58;0.60;;;9.40;99.90;;;;;;6305266;22;20046;-82
2023/10/30 02:12:29;;;;;;;3.90;0.68;;;9.50;99.90;;;;;;6305358;22;20451;-82
2023/10/30 02:14:55;;;;;;;4.10;0.57;;;9.50;99.90;;;;;;6303797;22;20078;-82
2023/10/30 02:17:21;;;;;;;0.93;0.50;;;9.50;99.90;;;;;;6305118;22;20039;-82
2023/10/30 02:19:47;;;;;;;1.92;0.85;;;9.40;99.90;;;;;;6305609;22;20019;-82
2023/10/30 02:22:13;;;;;;;2.78;0.95;;;9.40;99.90;;;;;;6305916;22;20035;-82
2023/10/30 02:24:39;;;;;;;1.25;0.70;;;9.40;99.90;;;;;;6306152;22;20022;-82
2023/10/30 02:27:05;;;;;;;4.15;1.13;;;9.40;99.90;;;;;;6304534;22;20012;-82
2023/10/30 02:29:31;;;;;;;2.53;1.15;;;9.40;99.90;;;;;;6305583;22;20470;-82
2023/10/30 02:31:56;;;;;;;5.85;0.95;;;9.40;99.90;;;;;;6305473;22;20011;-82
2023/10/30 02:34:22;;;;;;;0.98;0.68;;;9.40;99.90;;;;;;6305005;22;20086;-82
2023/10/30 02:36:48;;;;;;;1.33;0.75;;;9.40;99.90;;;;;;6305411;22;20039;-82
2023/10/30 02:39:14;;;;;;;2.35;0.80;;;9.40;99.90;;;;;;6277517;22;20086;-82
2023/10/30 02:41:39;;;;;;;3.72;0.68;;;9.40;99.90;;;;;;6304908;22;20080;-82
2023/10/30 02:44:05;;;;;;;0.65;0.40;;;9.40;99.90;;;;;;6304641;22;20037;-82
2023/10/30 02:46:31;;;;;;;4.43;1.10;;;9.40;99.90;;;;;;6277829;22;20015;-82
2023/10/30 02:48:57;;;;;;;1.33;0.52;;;9.40;99.90;;;;;;6277058;22;20023;-82
2023/10/30 02:51:22;;;;;;;6.50;0.90;;;9.30;99.90;;;;;;6305005;22;20012;-82
2023/10/30 02:53:48;;;;;;;1.13;0.70;;;9.30;99.90;;;;;;6305106;22;20064;-82
2023/10/30 02:56:14;;;;;;;2.95;0.55;;;9.30;99.90;;;;;;6276567;22;20019;-82
2023/10/30 02:58:40;;;;;;;5.10;0.68;;;9.30;99.90;;;;;;6304968;22;20011;-82
2023/10/30 03:01:06;;;;;;;5.85;0.60;;;9.30;99.90;;;;;;6305637;22;20015;-82
2023/10/30 03:03:31;;;;;;;3.80;0.85;;;9.30;99.90;;;;;;6304270;22;20015;-82
2023/10/30 03:05:57;;;;;;;0.98;0.75;;;9.30;99.90;;;;;;6305600;22;20021;-82
2023/10/30 03:08:26;;;;;;;5.28;0.70;;;9.30;99.90;;;;;;6305230;22;20016;-82
2023/10/30 03:10:52;;;;;;;1.65;0.50;;;9.20;99.90;;;;;;6304597;22;20007;-82
2023/10/30 03:13:18;;;;;;;2.80;0.90;;;9.20;99.90;;;;;;6305246;22;20050;-82
2023/10/30 03:15:46;;;;;;;2.85;0.70;;;9.20;99.90;;;;;;6304165;22;20008;-82
2023/10/30 03:18:13;;;;;;;0.95;0.50;;;9.20;99.90;;;;;;6303334;22;20486;-82
2023/10/30 03:20:39;;;;;;;1.55;0.52;;;9.20;99.90;;;;;;6304428;22;20444;-82
2023/10/30 03:23:05;;;;;;;1.73;0.60;;;9.20;99.90;;;;;;6305110;22;20011;-81
2023/10/30 03:25:30;;;;;;;3.20;0.52;;;9.20;99.90;;;;;;6305348;22;20018;-82
2023/10/30 03:27:56;;;;;;;4.03;0.63;;;9.20;99.90;;;;;;6305215;22;20076;-82
2023/10/30 03:30:22;;;;;;;0.40;0.30;;;9.20;99.90;;;;;;6304159;22;20015;-82
2023/10/30 03:32:48;;;;;;;0.80;0.40;;;9.20;99.90;;;;;;6304961;22;20011;-82
2023/10/30 03:35:14;;;;;;;1.65;0.50;;;9.20;99.90;;;;;;6304583;22;20039;-82
2023/10/30 03:37:39;;;;;;;2.45;0.77;;;9.30;99.90;;;;;;6303328;22;20019;-82
2023/10/30 03:40:06;;;;;;;4.20;1.00;;;9.30;99.90;;;;;;6304868;22;20011;-82
2023/10/30 03:42:32;;;;;;;5.18;1.00;;;9.30;99.90;;;;;;6304690;22;20011;-82
2023/10/30 03:44:57;;;;;;;6.57;0.50;;;9.30;99.90;;;;;;6303360;22;20523;-82
2023/10/30 03:47:23;;;;;;;1.85;0.57;;;9.30;99.90;;;;;;6304892;22;20011;-82
2023/10/30 03:49:49;;;;;;;1.38;0.55;;;9.20;99.90;;;;;;6304602;22;20061;-82
2023/10/30 03:52:14;;;;;;;1.85;0.47;;;9.20;99.90;;;;;;6304483;22;20015;-82
2023/10/30 03:54:40;;;;;;;2.13;0.77;;;9.20;99.90;;;;;;6304783;22;20007;-82
2023/10/30 03:57:09;;;;;;;2.17;0.68;;;9.20;99.90;;;;;;6304884;22;20019;-82
2023/10/30 03:59:35;;;;;;;1.65;1.00;;;9.20;99.90;;;;;;6304081;22;20019;-82
2023/10/30 04:02:01;;;;;;;1.02;0.55;;;9.20;99.90;;;;;;6305096;22;20111;-82
2023/10/30 04:04:27;;;;;;;3.60;0.90;;;9.20;99.90;;;;;;6304181;22;20012;-82
2023/10/30 04:06:53;;;;;;;1.73;0.90;;;9.20;99.90;;;;;;6303484;22;20007;-82
2023/10/30 04:09:19;;;;;;;0.45;0.30;;;9.20;99.90;;;;;;6304302;22;20011;-82
2023/10/30 04:11:47;;;;;;;1.30;0.43;;;9.30;99.90;;;;;;6303957;22;20007;-82
2023/10/30 04:14:13;;;;;;;1.55;0.88;;;9.30;99.90;;;;;;6277865;22;20003;-82
2023/10/30 04:16:39;;;;;;;3.03;1.33;;;9.30;99.90;;;;;;6304471;22;20061;-82
2023/10/30 04:19:05;;;;;;;2.25;0.50;;;9.20;99.90;;;;;;6303982;22;20015;-82
2023/10/30 04:21:31;;;;;;;2.22;0.95;;;9.30;99.90;;;;;;6303827;22;20042;-82
2023/10/30 04:23:57;;;;;;;5.22;0.82;;;9.30;99.90;;;;;;6304282;22;20022;-82
2023/10/30 04:26:23;;;;;;;4.95;1.70;;;9.20;99.90;;;;;;6304048;22;20447;-82
2023/10/30 04:28:49;;;;;;;2.55;0.70;;;9.30;99.90;;;;;;6304704;22;20023;-83
2023/10/30 04:31:15;;;;;;;0.63;0.32;;;9.30;99.90;;;;;;6304435;22;20014;-82
2023/10/30 04:33:41;;;;;;;3.03;1.20;;;9.30;99.90;;;;;;6303456;22;20011;-82
2023/10/30 04:36:07;;;;;;;1.48;0.80;;;9.20;99.90;;;;;;6304665;22;20007;-82
2023/10/30 04:38:34;;;;;;;3.75;1.35;;;9.30;99.90;;;;;;6303750;22;20037;-82
2023/10/30 04:41:06;;;;;;;3.50;0.90;;;9.30;99.90;;;;;;6303576;22;20347;-82
2023/10/30 04:43:34;;;;;;;2.70;0.93;;;9.30;99.90;;;;;;6304674;22;20015;-82
2023/10/30 04:46:00;;;;;;;1.98;0.40;;;9.20;99.90;;;;;;6304046;22;20019;-82
2023/10/30 04:48:29;;;;;;;3.83;0.40;;;9.20;99.90;;;;;;6303117;22;20015;-82
2023/10/30 04:50:55;;;;;;;4.57;0.77;;;9.20;99.90;;;;;;6304301;22;20265;-83
2023/10/30 04:53:20;;;;;;;0.80;0.65;;;9.20;99.90;;;;;;6303921;22;20640;-82
2023/10/30 04:55:49;;;;;;;5.15;0.52;;;9.20;99.90;;;;;;6303978;22;20015;-83
2023/10/30 04:58:15;;;;;;;0.30;0.23;;;9.20;99.90;;;;;;6304164;22;20443;-82
2023/10/30 05:00:42;;;;;;;2.47;0.55;;;9.10;99.90;;;;;;6303912;22;20011;-83
2023/10/30 05:03:09;;;;;;;8.43;0.90;;;9.10;99.90;;;;;;6303207;22;20054;-82
2023/10/30 05:05:38;;;;;;;4.40;0.77;;;9.10;99.90;;;;;;6304236;22;20014;-82
2023/10/30 05:08:04;;;;;;;3.38;1.33;;;9.10;99.90;;;;;;6303111;22;20022;-82
2023/10/30 05:10:33;;;;;;;6.97;1.02;;;9.10;99.90;;;;;;6303851;22;20460;-82
2023/10/30 05:12:59;;;;;;;1.80;1.25;;;9.10;99.90;;;;;;6276652;22;20015;-82
2023/10/30 05:15:25;;;;;;;2.10;0.73;;;9.10;99.90;;;;;;6276118;22;20015;-82
2023/10/30 05:17:50;;;;;;;1.77;0.85;;;9.20;99.90;;;;;;6276161;22;20094;-83
2023/10/30 05:20:16;;;;;;;4.32;0.85;;;9.20;99.90;;;;;;6276744;22;20042;-82
2023/10/30 05:22:43;;;;;;;7.32;1.10;;;9.20;99.90;;;;;;6276007;22;20015;-83
2023/10/30 05:25:12;;;;;;;2.47;0.65;;;9.20;99.90;;;;;;6305283;22;20466;-82
2023/10/30 05:27:37;;;;;;;3.72;0.30;;;9.10;99.90;;;;;;6277475;22;20007;-82
2023/10/30 05:30:04;;;;;;;3.00;0.50;;;9.10;99.90;;;;;;6277960;22;20022;-82
2023/10/30 05:32:29;;;;;;;1.75;0.47;;;9.10;99.90;;;;;;6278726;22;20016;-83
2023/10/30 05:34:55;;;;;;;2.28;0.60;;;9.10;99.90;;;;;;6278304;22;20053;-82
2023/10/30 05:37:21;;;;;;;2.08;0.50;;;9.10;99.90;;;;;;6305494;22;20061;-83
2023/10/30 05:39:49;;;;;;;0.25;0.20;;;9.10;99.90;;;;;;6279062;22;20090;-83
2023/10/30 05:42:15;;;;;;;2.72;0.65;;;9.10;99.90;;;;;;6306295;22;20015;-83
2023/10/30 05:44:41;;;;;;;2.67;0.63;;;9.10;99.90;;;;;;6278310;22;20022;-83
2023/10/30 05:47:07;;;;;;;4.93;1.02;;;9.10;99.90;;;;;;6258092;22;20043;-84
2023/10/30 05:49:33;;;;;;;1.05;0.40;;;9.10;99.90;;;;;;6278484;22;20022;-83
2023/10/30 05:51:59;;;;;;;2.53;0.68;;;9.10;99.90;;;;;;6304500;22;20015;-83
2023/10/30 05:54:25;;;;;;;0.70;0.47;;;9.10;99.90;;;;;;6285072;22;20019;-83
2023/10/30 05:56:51;;;;;;;2.10;0.38;;;9.10;99.90;;;;;;6304865;22;20015;-83
2023/10/30 05:59:17;;;;;;;1.02;0.63;;;9.10;99.90;;;;;;6306222;22;20126;-83
2023/10/30 06:01:43;;;;;;;2.92;0.60;;;9.10;99.90;;;;;;6305985;22;20050;-83
2023/10/30 06:04:09;;;;;;;8.48;0.98;;;9.10;99.90;;;;;;6304548;22;20471;-83
2023/10/30 06:06:34;;;;;;;0.88;0.60;;;9.10;99.90;;;;;;6305786;22;20332;-83
2023/10/30 06:09:00;;;;;;;13.23;0.98;;;9.10;99.90;;;;;;6305977;22;20091;-83
2023/10/30 06:11:26;;;;;;;2.97;0.90;;;9.10;99.90;;;;;;6304884;22;20007;-83
2023/10/30 06:13:51;;;;;;;6.35;0.75;;;9.10;99.90;;;;;;6306162;22;20378;-83
2023/10/30 06:16:20;;;;;;;2.13;0.28;;;9.10;99.90;;;;;;6305895;22;20011;-83
2023/10/30 06:18:46;;;;;;;3.67;1.23;;;9.10;99.90;;;;;;6277767;22;20019;-83
2023/10/30 06:21:19;;;;;;;6.97;0.60;;;9.10;99.90;;;;;;6306115;22;20022;-83
2023/10/30 06:23:45;;;;;;;2.10;0.63;;;9.10;99.90;;;;;;6305017;22;20035;-83
2023/10/30 06:26:12;;;;;;;9.35;0.57;;;9.20;99.90;;;;;;6276371;22;20033;-83
2023/10/30 06:28:38;;;;;;;1.10;0.40;;;9.20;99.90;;;;;;6304980;22;20066;-83
2023/10/30 06:31:14;;;;;;;1.67;0.52;;;9.20;99.90;;;;;;6305215;22;20011;-83
2023/10/30 06:33:40;;;;;;;3.72;0.50;;;9.30;99.90;;;;;;6304734;22;20327;-83
2023/10/30 06:36:06;;;;;;;1.95;0.85;;;9.30;99.90;;;;;;6305810;22;20068;-83
2023/10/30 06:38:33;;;;;;;1.35;0.63;;;9.30;99.90;;;;;;6305110;22;20019;-83
2023/10/30 06:40:59;;;;;;;1.50;0.40;;;9.40;99.90;;;;;;6305034;22;20101;-83
2023/10/30 06:43:25;;;;;;;2.30;0.63;;;9.40;99.90;;;;;;6305286;22;20089;-82
2023/10/30 06:46:04;;;;;;;2.10;0.52;;;9.40;99.90;;;;;;6305102;22;20449;-83
2023/10/30 06:48:31;;;;;;;3.33;0.67;;;9.40;99.90;;;;;;6305402;22;20410;-83
2023/10/30 06:50:57;;;;;;;1.40;1.00;;;9.40;99.90;;;;;;6276968;22;20729;-83
2023/10/30 06:53:23;;;;;;;6.38;0.73;;;9.50;99.90;;;;;;6277404;22;20081;-83
2023/10/30 06:55:50;;;;;;;0.28;0.28;;;9.60;99.90;;;;;;6277739;22;20466;-83
2023/10/30 06:58:21;;;;;;;4.95;1.23;;;9.60;99.90;;;;;;6304993;22;20016;-84
2023/10/30 07:00:47;;;;;;;9.93;1.02;;;9.70;99.90;;;;;;6304427;22;20022;-84
2023/10/30 07:03:13;;;;;;;6.03;0.75;;;9.70;99.90;;;;;;6305997;22;20011;-83
2023/10/30 07:05:39;;;;;;;1.00;0.50;;;9.80;99.90;;;;;;6306399;22;20015;-83
2023/10/30 07:08:04;;;;;;;3.83;0.90;;;9.80;99.90;;;;;;6304732;22;20492;-83
2023/10/30 07:10:30;;;;;;;3.05;1.05;;;9.90;99.90;;;;;;6304191;22;20039;-83
2023/10/30 07:12:56;;;;;;;3.00;0.82;;;10.00;99.90;;;;;;6310201;22;20026;-83
2023/10/30 07:15:22;;;;;;;2.20;0.50;;;10.10;99.90;;;;;;6276769;22;20011;-84
2023/10/30 07:17:48;;;;;;;7.20;0.98;;;10.20;99.90;;;;;;6304382;22;20018;-83
2023/10/30 07:20:14;;;;;;;2.28;0.80;;;10.20;99.90;;;;;;6301894;22;20034;-85
2023/10/30 07:22:40;;;;;;;3.72;0.60;;;10.30;99.90;;;;;;6301101;22;20116;-84
2023/10/30 07:25:07;;;;;;;1.33;0.88;;;10.30;99.90;;;;;;6301749;22;20367;-83
2023/10/30 07:27:33;;;;;;;2.80;0.60;;;10.40;99.90;;;;;;6301433;22;20015;-83
2023/10/30 07:29:59;;;;;;;1.65;0.82;;;10.40;99.90;;;;;;6300313;22;20335;-83
2023/10/30 07:32:25;;;;;;;4.75;0.30;;;10.50;99.90;;;;;;6274494;22;20455;-83
2023/10/30 07:34:51;;;;;;;5.20;0.98;;;10.50;99.90;;;;;;6273548;22;20015;-83
2023/10/30 07:37:17;;;;;;;7.80;0.95;;;10.50;99.90;;;;;;6274567;22;20022;-83
2023/10/30 07:39:44;;;;;;;7.97;1.10;;;10.50;99.90;;;;;;6274329;22;20084;-83
2023/10/30 07:42:09;;;;;;;0.85;0.45;;;10.60;99.90;;;;;;6273472;22;20019;-84
2023/10/30 07:44:36;;;;;;;1.17;0.60;;;10.60;99.90;;;;;;6273998;22;20030;-84
2023/10/30 07:47:03;;;;;;;5.57;1.25;;;10.60;99.90;;;;;;6274165;22;20488;-84
2023/10/30 07:49:28;;;;;;;1.35;0.68;;;10.60;99.90;;;;;;6248275;22;20015;-84
2023/10/30 07:51:54;;;;;;;1.92;0.80;;;10.70;99.90;;;;;;6273954;22;20064;-85
2023/10/30 07:54:21;;;;;;;7.57;1.17;;;10.70;99.90;;;;;;6272447;22;20058;-83
2023/10/30 07:56:47;;;;;;;1.17;0.60;;;10.80;99.90;;;;;;6273262;22;20391;-83
2023/10/30 07:59:13;;;;;;;1.65;0.75;;;10.80;99.90;;;;;;6274243;22;20022;-84
2023/10/30 08:01:39;;;;;;;2.35;0.63;;;10.80;99.90;;;;;;6301045;22;20026;-84
2023/10/30 08:04:06;;;;;;;2.90;0.80;;;10.90;99.90;;;;;;6272122;22;20455;-84
2023/10/30 08:06:32;;;;;;;5.45;0.85;;;11.00;99.90;;;;;;6273865;22;20086;-83
2023/10/30 08:08:58;;;;;;;6.07;1.10;;;11.00;99.90;;;;;;6301614;22;20015;-84
2023/10/30 08:11:24;;;;;;;1.95;0.47;;;11.10;99.90;;;;;;6299774;22;20559;-84
2023/10/30 08:13:49;;;;;;;1.40;0.40;;;11.20;99.90;;;;;;6300893;22;20015;-84
2023/10/30 08:16:15;;;;;;;4.28;0.70;;;11.30;99.90;;;;;;6300682;22;20007;-84
2023/10/30 08:18:41;;;;;;;10.15;0.70;;;11.30;99.90;;;;;;6299955;22;20084;-84
2023/10/30 08:21:07;;;;;;;3.72;0.93;;;11.50;99.90;;;;;;6273198;22;20344;-84
2023/10/30 08:23:37;;;;;;;3.50;0.90;;;11.50;99.90;;;;;;6274686;22;20011;-84
2023/10/30 08:26:04;;;;;;;2.13;0.57;;;11.60;99.90;;;;;;6301099;22;20291;-83
2023/10/30 08:28:30;;;;;;;7.05;0.82;;;11.70;99.90;;;;;;6301514;22;20088;-83
2023/10/30 08:30:56;;;;;;;3.28;0.63;;;11.80;99.90;;;;;;6300754;22;20332;-83
2023/10/30 08:33:22;;;;;;;1.25;0.65;;;11.90;99.90;;;;;;6299280;22;20069;-82
2023/10/30 08:35:48;;;;;;;3.33;1.25;;;12.00;99.90;;;;;;6301461;22;20036;-83
2023/10/30 08:38:14;;;;;;;10.85;0.98;;;12.20;99.90;;;;;;6300419;22;20123;-83
2023/10/30 08:40:40;;;;;;;1.83;1.25;;;12.40;99.90;;;;;;6300964;22;20096;-87
2023/10/30 08:43:06;;;;;;;3.42;0.50;;;12.80;99.90;;;;;;6272791;22;20457;-83
2023/10/30 08:45:32;;;;;;;1.05;0.32;;;13.30;99.90;;;;;;6299509;22;20090;-83
2023/10/30 08:47:58;;;;;;;5.00;1.13;;;13.80;99.90;;;;;;6272469;22;20459;-83
2023/10/30 08:50:23;;;;;;;3.22;1.00;;;14.30;99.90;;;;;;6273619;22;20094;-82
2023/10/30 08:52:49;;;;;;;3.42;1.00;;;14.70;99.90;;;;;;6272978;22;20015;-82
2023/10/30 08:55:15;;;;;;;5.22;1.42;;;15.00;99.90;;;;;;6273924;22;20080;-83
2023/10/30 08:57:41;;;;;;;1.88;0.70;;;15.20;99.90;;;;;;6273666;22;20019;-82
2023/10/30 09:00:07;;;;;;;5.68;0.65;;;14.90;99.90;;;;;;6273014;22;20015;-82
2023/10/30 09:02:34;;;;;;;4.60;0.82;;;15.00;99.90;;;;;;6272803;22;20335;-83
2023/10/30 09:04:59;;;;;;;3.97;0.95;;;15.50;99.90;;;;;;6271956;22;20094;-83
2023/10/30 09:07:25;;;;;;;4.28;1.20;;;15.90;99.90;;;;;;6272982;22;20467;-83
2023/10/30 09:09:52;;;;;;;2.15;0.52;;;16.00;99.90;;;;;;6273391;22;20012;-82
2023/10/30 09:12:17;;;;;;;5.22;1.20;;;16.10;99.90;;;;;;6301238;22;20022;-83
2023/10/30 09:14:43;;;;;;;6.32;1.30;;;16.30;99.90;;;;;;6273242;22;20007;-83
2023/10/30 09:17:09;;;;;;;3.10;0.90;;;16.20;99.90;;;;;;6273491;22;20034;-83
2023/10/30 09:19:36;;;;;;;1.95;0.70;;;15.80;99.90;;;;;;6301717;22;20011;-83
2023/10/30 09:22:03;;;;;;;1.88;0.60;;;15.60;99.90;;;;;;6300700;22;20050;-83
2023/10/30 09:24:28;;;;;;;4.07;0.95;;;15.50;99.90;;;;;;6301143;22;20448;-82
2023/10/30 09:26:54;;;;;;;3.10;0.88;;;15.50;99.90;;;;;;6300759;22;20018;-83
2023/10/30 09:29:20;;;;;;;3.22;1.10;;;15.70;99.90;;;;;;6301028;22;20086;-83
2023/10/30 09:31:46;;;;;;;2.15;0.90;;;16.10;99.90;;;;;;6301716;22;20011;-83
2023/10/30 09:34:12;;;;;;;4.15;0.90;;;16.70;99.90;;;;;;6300344;22;20034;-82
2023/10/30 09:36:38;;;;;;;2.20;0.68;;;17.00;99.90;;;;;;6272889;22;20015;-83
2023/10/30 09:39:04;;;;;;;3.53;0.70;;;17.60;99.90;;;;;;6301408;22;20237;-83
2023/10/30 09:41:32;;;;;;;2.65;0.55;;;17.90;99.90;;;;;;6273574;22;20027;-83
2023/10/30 09:43:58;;;;;;;2.88;1.15;;;18.10;99.90;;;;;;6302783;22;20082;-83
2023/10/30 09:46:28;;;;;;;2.30;0.63;;;18.40;99.90;;;;;;6301932;22;20011;-83
2023/10/30 09:48:56;;;;;;;2.28;0.70;;;18.60;99.90;;;;;;6273130;22;20019;-82
2023/10/30 09:51:23;;;;;;;5.35;1.00;;;18.70;99.90;;;;;;6300949;22;20018;-83
2023/10/30 09:53:53;;;;;;;6.20;1.08;;;18.50;99.90;;;;;;6301791;22;20030;-83
2023/10/30 09:56:19;;;;;;;5.68;1.30;;;18.30;99.90;;;;;;6300655;22;20007;-82
2023/10/30 09:58:47;;;;;;;5.57;1.23;;;18.30;99.90;;;;;;6301562;22;20105;-83
2023/10/30 10:01:13;;;;;;;3.92;1.23;;;18.20;99.90;;;;;;6301581;22;20459;-82
2023/10/30 10:03:39;;;;;;;3.47;0.73;;;18.20;99.90;;;;;;6300445;22;20023;-82
2023/10/30 10:06:05;;;;;;;4.13;0.93;;;18.40;99.90;;;;;;6301421;22;20015;-83
2023/10/30 10:08:31;;;;;;;2.58;0.35;;;19.00;99.90;;;;;;6302321;22;20076;-82
2023/10/30 10:10:57;;;;;;;3.03;0.90;;;19.40;99.90;;;;;;6302115;22;20015;-83
2023/10/30 10:13:24;;;;;;;3.88;0.85;;;18.60;99.90;;;;;;6303606;22;20380;-83
2023/10/30 10:15:51;;;;;;;2.25;0.40;;;17.60;99.90;;;;;;6275109;22;20729;-83
2023/10/30 10:18:32;;;;;;;6.03;0.95;;;17.40;99.90;;;;;;6303114;22;20047;-83
2023/10/30 10:21:03;;;;;;;1.65;0.90;;;17.70;99.90;;;;;;6303548;22;20015;-83
2023/10/30 10:23:35;;;;;;;2.40;0.52;;;17.30;99.90;;;;;;6301747;22;20473;-83
2023/10/30 10:26:06;;;;;;;4.60;1.10;;;16.60;99.90;;;;;;6275307;22;20022;-82
2023/10/30 10:28:33;;;;;;;3.35;0.50;;;16.00;99.90;;;;;;6275481;22;20068;-83
2023/10/30 10:30:59;;;;;;;3.65;0.93;;;15.50;99.90;;;;;;6302020;22;20007;-82
2023/10/30 10:33:27;;;;;;;5.35;0.50;;;15.10;99.90;;;;;;6275409;22;20332;-82
2023/10/30 10:36:04;;;;;;;5.60;1.00;;;14.80;99.90;;;;;;6302891;22;20034;-83
2023/10/30 10:38:31;;;;;;;3.33;0.70;;;14.70;99.90;;;;;;6300578;22;20019;-82
2023/10/30 10:40:57;;;;;;;3.20;0.52;;;14.60;99.90;;;;;;6302289;22;20011;-82
2023/10/30 10:43:28;;;;;;;3.53;1.15;;;14.60;99.90;;;;;;6303077;22;20042;-82
2023/10/30 10:45:55;;;;;;;3.17;0.70;;;14.60;99.90;;;;;;6301495;22;20076;-83
2023/10/30 10:48:23;;;;;;;3.28;0.82;;;14.60;99.90;;;;;;6301590;22;20034;-83
2023/10/30 10:50:49;;;;;;;10.05;1.30;;;14.80;99.90;;;;;;6301961;22;20024;-83
2023/10/30 10:53:19;;;;;;;4.32;0.75;;;15.30;99.90;;;;;;6302496;22;20017;-83
2023/10/30 10:55:46;;;;;;;;;;;15.90;99.90;;;;;;6303027;22;20034;-83
2023/10/30 10:58:17;;;;;;;4.28;0.70;;;16.70;99.90;;;;;;6301332;22;20343;-83
2023/10/30 11:00:53;;;;;;;3.22;0.40;;;17.30;99.90;;;;;;6275458;22;20509;-83
2023/10/30 11:03:21;;;;;;;1.90;0.65;;;17.60;99.90;;;;;;6303852;22;20015;-83
2023/10/30 11:05:51;;;;;;;2.58;0.50;;;17.60;99.90;;;;;;6274784;22;20019;-83
2023/10/30 11:08:40;;;;;;;7.07;1.20;;;17.80;99.90;;;;;;6302386;22;20022;-82
2023/10/30 11:11:12;;;;;;;3.83;0.80;;;18.00;99.90;;;;;;6275039;22;20027;-83
2023/10/30 11:14:08;;;;;;;7.47;1.40;;;18.00;99.90;;;;;;6301522;22;20060;-83
2023/10/30 11:17:00;;;;;;;2.78;0.90;;;17.80;99.90;;;;;;6302682;22;20022;-82
2023/10/30 11:19:28;;;;;;;3.13;1.15;;;17.30;99.90;;;;;;6274224;22;20086;-81
2023/10/30 11:21:54;;;;;;;4.25;1.00;;;16.70;99.90;;;;;;6273788;22;20015;-80
2023/10/30 11:24:42;;;;;;;1.58;0.55;;;16.20;99.90;;;;;;6249648;22;20015;-80
2023/10/30 11:27:26;;;;;;;1.27;0.57;;;15.80;99.90;;;;;;6300524;22;20015;-89
2023/10/30 11:30:11;;;;;;;4.07;1.33;;;15.70;99.90;;;;;;6247707;22;20019;-80
2023/10/30 11:32:56;;;;;;;1.67;0.57;;;15.60;99.90;;;;;;6302022;22;20004;-81
2023/10/30 11:35:23;;;;;;;3.03;0.77;;;15.60;99.90;;;;;;6301552;22;20090;-81
2023/10/30 11:37:55;;;;;;;2.53;0.43;;;15.70;99.90;;;;;;6248425;22;20030;-80
2023/10/30 11:40:23;;;;;;;2.45;0.70;;;15.50;99.90;;;;;;6301490;22;20034;-80
2023/10/30 11:42:55;;;;;;;3.47;0.52;;;15.50;99.90;;;;;;6301495;22;20015;-80
2023/10/30 11:45:26;;;;;;;4.68;0.60;;;15.40;99.90;;;;;;6302264;22;20019;-80
2023/10/30 11:48:05;;;;;;;3.50;0.50;;;15.30;99.90;;;;;;6301029;22;20011;-80
2023/10/30 11:50:36;;;;;;;;;;;15.10;99.90;;;;;;6274792;22;20086;-80
2023/10/30 11:53:17;;;;;;;4.03;0.95;;;14.90;99.90;;;;;;6274251;22;20315;-81
2023/10/30 11:55:43;;;;;;;4.43;1.23;;;14.80;99.90;;;;;;6273807;22;20431;-80
2023/10/30 11:58:10;;;;;;;6.30;1.33;;;14.80;99.90;;;;;;6273761;22;20041;-80
2023/10/30 12:00:44;;;;;;;4.47;0.60;;;14.70;99.90;;;;;;6301888;22;20422;-81
2023/10/30 12:03:10;;;;;;;2.42;0.63;;;14.70;99.90;;;;;;6272756;22;20023;-80
2023/10/30 12:05:37;;;;;;;2.17;1.05;;;14.60;99.90;;;;;;6302133;22;20055;-80
2023/10/30 12:08:04;;;;;;;2.25;0.80;;;14.50;99.90;;;;;;6301545;22;20012;-80
2023/10/30 12:10:32;;;;;;;4.03;0.63;;;14.40;99.90;;;;;;6301792;22;20015;-81
2023/10/30 12:13:00;;;;;;;4.50;0.77;;;14.30;99.90;;;;;;6302077;22;20412;-80
2023/10/30 12:15:26;;;;;;;4.88;0.80;;;14.40;99.90;;;;;;6300598;22;20531;-80
2023/10/30 12:17:52;;;;;;;5.78;1.13;;;14.40;99.90;;;;;;6301570;22;20043;-80
2023/10/30 12:20:18;;;;;;;4.25;0.95;;;14.40;99.90;;;;;;6302722;22;20158;-80
2023/10/30 12:22:44;;;;;;;7.47;1.05;;;14.30;99.90;;;;;;6302119;22;20016;-80
2023/10/30 12:25:17;;;;;;;3.65;0.98;;;14.20;99.90;;;;;;6302068;22;20094;-80
2023/10/30 12:27:43;;;;;;;3.88;0.68;;;14.10;99.90;;;;;;6301369;22;20083;-81
2023/10/30 12:30:14;;;;;;;4.22;0.77;;;14.00;99.90;;;;;;6301304;22;20121;-81
2023/10/30 12:32:41;;;;;;;0.80;0.40;;;13.90;99.90;;;;;;6301304;22;20617;-81
2023/10/30 12:35:11;;;;;;;3.83;0.85;;;14.00;99.90;;;;;;6301926;22;20039;-81
2023/10/30 12:37:38;;;;;;;6.90;1.40;;;14.10;99.90;;;;;;6300717;22;20019;-81
2023/10/30 12:40:09;;;;;;;6.05;1.05;;;14.10;99.90;;;;;;6300720;22;20034;-80
2023/10/30 12:42:39;;;;;;;4.07;0.60;;;14.10;99.90;;;;;;6301880;22;20082;-81
2023/10/30 12:45:13;;;;;;;6.53;1.10;;;14.10;99.90;;;;;;6272002;22;20045;-80
2023/10/30 12:47:40;;;;;;;1.83;0.93;;;14.00;99.90;;;;;;6301430;22;20019;-81
2023/10/30 12:50:07;;;;;;;2.88;0.60;;;14.00;99.90;;;;;;6300268;22;20051;-80
2023/10/30 12:52:34;;;;;;;5.70;0.98;;;14.00;99.90;;;;;;6301200;22;20125;-80